Time;durP1;ratioP1;P1;durP2;ratioP2;P2;SDS_P1;SDS_P2;PMS_P1;PMS_P2;Temp;Humidity;BMP_temperature;BMP_pressure;BME280_temperature;BME280_humidity;BME280_pressure;Samples;Min_cycle;Max_cycle;Signal;HPM_P1;HPM_P2
2022/12/09 00:01:04;;;;;;;11.88;7.57;;;;;;;0.74;62.62;95671.34;5095186;28;20044;-77
2022/12/09 00:03:33;;;;;;;11.85;7.72;;;;;;;0.71;62.66;95672.44;5095490;28;20090;-77
2022/12/09 00:06:07;;;;;;;15.43;8.82;;;;;;;0.70;62.59;95663.16;5095181;28;20086;-77
2022/12/09 00:08:35;;;;;;;17.60;9.52;;;;;;;0.71;62.67;95656.25;5095244;28;20086;-77
2022/12/09 00:11:03;;;;;;;20.65;11.50;;;;;;;0.72;62.90;95650.97;5095219;28;20044;-77
2022/12/09 00:13:31;;;;;;;13.43;9.00;;;;;;;0.73;62.51;95651.78;5094966;28;20052;-77
2022/12/09 00:15:59;;;;;;;16.65;9.10;;;;;;;0.69;62.92;95653.81;5095155;28;20052;-77
2022/12/09 00:18:27;;;;;;;13.25;8.77;;;;;;;0.67;62.97;95655.72;5095050;28;20459;-77
2022/12/09 00:20:54;;;;;;;11.57;7.70;;;;;;;0.65;63.06;95649.91;5098074;28;20048;-77
2022/12/09 00:23:23;;;;;;;10.63;8.50;;;;;;;0.64;63.11;95648.31;5119146;28;20050;-77
2022/12/09 00:25:51;;;;;;;10.05;7.00;;;;;;;0.65;63.25;95644.78;5110758;28;20078;-77
2022/12/09 00:28:19;;;;;;;10.30;7.65;;;;;;;0.67;63.01;95642.88;5095042;28;20048;-77
2022/12/09 00:30:46;;;;;;;11.98;8.18;;;;;;;0.69;63.10;95643.56;5094666;28;20105;-77
2022/12/09 00:33:14;;;;;;;11.75;8.20;;;;;;;0.71;62.81;95643.41;5094566;28;20505;-77
2022/12/09 00:35:42;;;;;;;12.18;7.90;;;;;;;0.70;62.67;95631.50;5094404;28;20083;-77
2022/12/09 00:38:10;;;;;;;11.55;6.97;;;;;;;0.69;62.83;95624.78;5093940;28;20048;-77
2022/12/09 00:40:38;;;;;;;12.50;7.13;;;;;;;0.69;63.07;95622.22;5094317;28;20055;-78
2022/12/09 00:43:06;;;;;;;11.25;7.30;;;;;;;0.71;63.19;95628.81;5094532;28;20076;-77
2022/12/09 00:45:34;;;;;;;12.63;8.32;;;;;;;0.71;63.32;95615.97;5094432;28;20054;-77
2022/12/09 00:48:01;;;;;;;12.70;7.55;;;;;;;0.73;63.25;95615.84;5094336;28;20131;-77
2022/12/09 00:50:29;;;;;;;11.20;7.15;;;;;;;0.75;62.83;95609.59;5105237;28;20058;-77
2022/12/09 00:52:57;;;;;;;10.52;7.35;;;;;;;0.78;63.35;95617.00;5104763;28;20044;-77
2022/12/09 00:55:24;;;;;;;11.13;8.25;;;;;;;0.82;63.33;95620.09;5095630;28;20052;-77
2022/12/09 00:57:53;;;;;;;13.73;7.80;;;;;;;0.84;62.97;95623.34;5094122;28;20051;-77
2022/12/09 01:00:21;;;;;;;11.25;8.30;;;;;;;0.86;63.18;95618.88;5094004;28;20560;-77
2022/12/09 01:02:49;;;;;;;11.98;7.80;;;;;;;0.87;62.87;95611.97;5093828;28;20421;-77
2022/12/09 01:05:17;;;;;;;12.25;7.32;;;;;;;0.85;62.86;95606.97;5093842;28;20048;-77
2022/12/09 01:07:45;;;;;;;10.82;7.60;;;;;;;0.84;63.01;95609.69;5093716;28;20436;-76
2022/12/09 01:10:12;;;;;;;11.32;6.82;;;;;;;0.85;63.15;95613.88;5093550;28;20589;-77
2022/12/09 01:12:40;;;;;;;13.73;8.13;;;;;;;0.84;63.00;95612.25;5093628;28;20044;-77
2022/12/09 01:15:10;;;;;;;11.35;7.82;;;;;;;0.81;63.13;95610.81;5129024;22;20051;-77
2022/12/09 01:17:38;;;;;;;10.82;7.95;;;;;;;0.80;63.40;95612.53;5093485;28;20083;-77
2022/12/09 01:20:08;;;;;;;12.15;7.38;;;;;;;0.77;63.08;95617.97;5093660;28;20097;-77
2022/12/09 01:22:37;;;;;;;10.85;7.97;;;;;;;0.79;63.49;95623.78;5093589;28;20060;-77
2022/12/09 01:25:05;;;;;;;10.48;8.00;;;;;;;0.77;63.21;95617.97;5093770;28;20118;-77
2022/12/09 01:27:33;;;;;;;13.48;8.02;;;;;;;0.76;63.35;95606.06;5093228;28;20059;-77
2022/12/09 01:30:01;;;;;;;13.85;8.52;;;;;;;0.77;63.50;95620.53;5093228;28;20051;-77
2022/12/09 01:32:30;;;;;;;16.85;9.88;;;;;;;0.78;63.35;95611.06;5092497;28;20071;-77
2022/12/09 01:34:57;;;;;;;13.02;8.68;;;;;;;0.78;63.26;95595.66;5093213;28;20084;-77
2022/12/09 01:37:25;;;;;;;12.88;8.38;;;;;;;0.79;63.29;95600.66;5093288;28;20494;-77
2022/12/09 01:39:53;;;;;;;12.52;8.18;;;;;;;0.78;63.42;95604.16;5092850;28;20561;-77
2022/12/09 01:42:24;;;;;;;10.40;8.07;;;;;;;0.77;63.35;95606.91;5093761;28;20048;-77
2022/12/09 01:45:43;;;;;;;11.20;7.97;;;;;;;0.78;63.30;95601.59;5092762;28;20048;-77
2022/12/09 01:48:15;;;;;;;12.57;7.35;;;;;;;0.79;63.28;95598.09;5010816;28;20466;-77
2022/12/09 01:50:48;;;;;;;12.45;8.15;;;;;;;0.79;63.44;95598.09;5010871;28;20141;-77
2022/12/09 01:53:18;;;;;;;13.23;8.05;;;;;;;0.80;63.27;95597.13;5052951;28;20044;-77
2022/12/09 01:55:46;;;;;;;13.35;8.52;;;;;;;0.79;63.30;95585.25;5092709;28;20048;-77
2022/12/09 01:58:14;;;;;;;12.63;8.02;;;;;;;0.78;63.31;95581.06;5092378;28;20059;-77
2022/12/09 02:00:43;;;;;;;13.55;8.73;;;;;;;0.75;63.34;95583.13;5093026;28;20048;-77
2022/12/09 02:03:13;;;;;;;12.07;8.30;;;;;;;0.71;63.45;95592.88;5092713;28;20048;-77
2022/12/09 02:05:41;;;;;;;13.45;8.18;;;;;;;0.68;63.58;95588.03;5092416;28;20047;-77
2022/12/09 02:08:12;;;;;;;12.10;8.40;;;;;;;0.70;63.77;95582.75;5091836;28;20059;-77
2022/12/09 02:10:45;;;;;;;12.77;8.98;;;;;;;0.70;63.99;95586.16;5092495;28;20048;-77
2022/12/09 02:13:24;;;;;;;12.43;8.75;;;;;;;0.66;63.60;95578.88;5092886;28;20064;-77
2022/12/09 02:15:54;;;;;;;13.80;9.10;;;;;;;0.64;64.05;95585.91;5092910;28;20062;-77
2022/12/09 02:18:27;;;;;;;14.82;9.15;;;;;;;0.63;64.20;95581.72;5092122;28;20056;-77
2022/12/09 02:20:57;;;;;;;;;;;;;;;0.65;64.18;95580.63;5093063;28;20059;-77
2022/12/09 02:23:34;;;;;;;15.95;9.88;;;;;;;0.65;64.26;95574.69;5092564;28;19920;-77
2022/12/09 02:26:13;;;;;;;16.23;9.95;;;;;;;0.61;63.94;95575.00;5092591;28;20084;-78
2022/12/09 02:29:00;;;;;;;16.95;9.77;;;;;;;0.57;64.15;95568.53;5092104;28;20113;-77
2022/12/09 02:31:43;;;;;;;14.05;9.25;;;;;;;0.53;64.33;95568.97;5092628;28;20138;-77
2022/12/09 02:34:17;;;;;;;15.93;9.77;;;;;;;0.49;64.33;95557.38;5092810;28;20055;-77
2022/12/09 02:36:56;;;;;;;12.82;8.45;;;;;;;0.46;64.47;95552.50;5092559;28;20055;-77
2022/12/09 02:39:31;;;;;;;14.07;9.05;;;;;;;0.45;65.66;95561.19;5092181;28;20212;-77
2022/12/09 02:42:03;;;;;;;12.77;8.98;;;;;;;0.46;66.65;95558.47;5092653;28;20059;-78
2022/12/09 02:44:31;;;;;;;13.33;8.97;;;;;;;0.50;66.08;95561.53;5096567;28;20131;-77
2022/12/09 02:47:00;;;;;;;12.50;8.77;;;;;;;0.52;66.44;95559.63;5096409;28;20702;-77
2022/12/09 02:49:31;;;;;;;13.85;9.27;;;;;;;0.52;65.60;95552.75;5096175;28;20048;-77
2022/12/09 02:52:01;;;;;;;17.58;9.65;;;;;;;0.53;66.47;95554.38;5096606;28;20052;-77
2022/12/09 02:54:32;;;;;;;11.68;8.98;;;;;;;0.57;67.32;95550.56;5096176;28;20420;-77
2022/12/09 02:57:05;;;;;;;17.17;9.55;;;;;;;0.57;66.27;95549.78;5096108;28;20588;-77
2022/12/09 02:59:33;;;;;;;12.93;8.95;;;;;;;0.52;66.58;95542.47;5096024;28;20494;-77
2022/12/09 03:02:11;;;;;;;16.70;9.45;;;;;;;0.49;65.87;95547.09;5096094;28;20040;-77
2022/12/09 03:04:44;;;;;;;11.93;8.65;;;;;;;0.47;67.81;95543.88;5102761;28;20032;-77
2022/12/09 03:07:25;;;;;;;14.60;9.35;;;;;;;0.49;69.45;95539.41;5120678;28;20103;-77
2022/12/09 03:10:01;;;;;;;9.50;7.65;;;;;;;0.51;68.34;95542.66;5107051;28;20104;-77
2022/12/09 03:12:31;;;;;;;14.48;9.77;;;;;;;0.47;67.62;95542.13;5096909;28;20048;-77
2022/12/09 03:15:02;;;;;;;12.75;8.45;;;;;;;0.44;68.14;95544.97;5095825;28;20051;-77
2022/12/09 03:17:33;;;;;;;14.07;9.25;;;;;;;0.40;67.13;95534.19;5096045;28;20195;-77
2022/12/09 03:20:06;;;;;;;16.02;9.18;;;;;;;0.32;65.73;95528.97;5095855;28;20044;-77
2022/12/09 03:22:37;;;;;;;13.65;8.45;;;;;;;0.24;65.79;95518.66;5095783;28;20048;-77
2022/12/09 03:25:08;;;;;;;13.95;8.68;;;;;;;0.14;65.54;95518.69;5096013;28;20079;-77
2022/12/09 03:27:40;;;;;;;13.63;8.35;;;;;;;0.13;65.44;95521.38;5095883;28;20413;-77
2022/12/09 03:30:10;;;;;;;15.40;8.02;;;;;;;0.12;65.27;95524.91;5095824;28;20044;-77
2022/12/09 03:32:40;;;;;;;13.05;7.20;;;;;;;0.07;65.05;95521.97;5095638;28;20052;-77
2022/12/09 03:35:14;;;;;;;11.77;7.38;;;;;;;-0.01;64.73;95520.91;5095814;28;20052;-77
2022/12/09 03:37:44;;;;;;;12.15;7.70;;;;;;;-0.09;64.71;95512.31;5095838;28;20052;-77
2022/12/09 03:40:15;;;;;;;13.15;8.63;;;;;;;-0.13;65.14;95511.00;5095730;28;20101;-77
2022/12/09 03:42:49;;;;;;;11.10;7.47;;;;;;;-0.13;65.80;95509.25;5095491;28;20048;-77
2022/12/09 03:45:19;;;;;;;11.48;7.35;;;;;;;-0.09;66.73;95507.19;5095434;28;20518;-77
2022/12/09 03:47:47;;;;;;;12.10;7.93;;;;;;;-0.02;66.90;95503.94;5095173;28;20494;-77
2022/12/09 03:50:16;;;;;;;12.45;8.20;;;;;;;0.05;67.27;95504.16;5095524;28;20056;-77
2022/12/09 03:52:48;;;;;;;14.50;7.28;;;;;;;0.10;68.27;95501.16;5095493;28;20429;-77
2022/12/09 03:55:23;;;;;;;12.43;8.48;;;;;;;0.15;68.46;95504.09;5094622;28;20076;-77
2022/12/09 03:57:54;;;;;;;12.93;8.43;;;;;;;0.24;68.43;95493.00;5095378;28;20044;-77
2022/12/09 04:00:22;;;;;;;12.90;9.85;;;;;;;0.30;67.91;95494.97;5095250;28;20056;-77
2022/12/09 04:02:50;;;;;;;17.20;9.15;;;;;;;0.28;67.69;95494.31;5095154;28;20444;-77
2022/12/09 04:05:19;;;;;;;12.20;8.90;;;;;;;0.20;67.34;95491.69;5095967;28;20048;-77
2022/12/09 04:07:47;;;;;;;11.98;8.70;;;;;;;0.17;67.90;95492.75;5109010;28;20122;-77
2022/12/09 04:10:15;;;;;;;17.45;9.60;;;;;;;0.12;67.87;95494.94;5108148;28;20048;-77
2022/12/09 04:12:42;;;;;;;14.50;9.52;;;;;;;0.16;69.04;95496.28;5107555;28;20050;-77
2022/12/09 04:15:10;;;;;;;13.30;8.15;;;;;;;0.25;68.83;95494.59;5106923;28;20040;-77
2022/12/09 04:17:38;;;;;;;12.88;8.27;;;;;;;0.28;67.25;95489.16;5106786;28;20048;-77
2022/12/09 04:20:07;;;;;;;14.57;9.35;;;;;;;0.24;66.63;95497.31;5105172;28;20107;-77
2022/12/09 04:22:37;;;;;;;13.70;9.25;;;;;;;0.15;66.00;95493.84;5107329;28;20112;-78
2022/12/09 04:25:06;;;;;;;14.52;9.68;;;;;;;0.06;66.15;95485.25;5107289;28;20048;-77
2022/12/09 04:27:34;;;;;;;13.18;8.75;;;;;;;-0.01;66.72;95482.47;5102014;28;20103;-77
2022/12/09 04:30:01;;;;;;;12.93;8.68;;;;;;;-0.04;66.99;95490.47;5094494;28;20047;-77
2022/12/09 04:32:30;;;;;;;13.98;8.18;;;;;;;-0.02;67.57;95483.44;5095042;28;20051;-77
2022/12/09 04:34:57;;;;;;;14.23;9.25;;;;;;;0.02;67.49;95478.00;5094630;28;20498;-78
2022/12/09 04:37:25;;;;;;;15.02;8.88;;;;;;;0.03;66.54;95475.31;5094735;28;20048;-77
2022/12/09 04:39:54;;;;;;;13.68;8.85;;;;;;;0.02;67.09;95470.31;5094440;28;20093;-77
2022/12/09 04:42:22;;;;;;;13.15;8.65;;;;;;;-0.01;67.22;95472.22;5094784;28;20054;-77
2022/12/09 04:44:49;;;;;;;14.65;9.55;;;;;;;-0.03;66.99;95451.03;5094579;28;20066;-77
2022/12/09 04:47:17;;;;;;;13.00;8.80;;;;;;;-0.04;67.55;95454.56;5094162;28;20051;-78
2022/12/09 04:49:45;;;;;;;13.02;8.88;;;;;;;-0.03;67.37;95455.38;5094200;28;20091;-77
2022/12/09 04:52:13;;;;;;;11.80;8.80;;;;;;;-0.01;68.54;95451.69;5094538;28;20062;-77
2022/12/09 04:54:40;;;;;;;13.95;9.68;;;;;;;0.09;68.88;95453.38;5094380;28;20083;-77
2022/12/09 04:57:10;;;;;;;13.77;9.75;;;;;;;0.06;68.03;95449.38;5094135;28;20047;-77
2022/12/09 04:59:38;;;;;;;14.80;10.90;;;;;;;0.01;67.48;95451.56;5094096;28;20112;-77
2022/12/09 05:02:06;;;;;;;13.85;10.35;;;;;;;0.01;68.43;95446.44;5094075;28;20048;-77
2022/12/09 05:04:34;;;;;;;16.88;10.20;;;;;;;0.03;68.55;95433.47;5093795;28;20052;-77
2022/12/09 05:07:02;;;;;;;16.15;10.95;;;;;;;0.07;68.48;95437.38;5093587;28;20048;-77
2022/12/09 05:09:30;;;;;;;14.55;10.35;;;;;;;0.08;68.31;95436.41;5093469;28;20055;-77
2022/12/09 05:11:58;;;;;;;15.20;10.77;;;;;;;0.07;68.61;95434.81;5093830;28;20109;-77
2022/12/09 05:14:27;;;;;;;15.07;9.90;;;;;;;0.04;68.49;95419.69;5093469;28;20048;-77
2022/12/09 05:16:55;;;;;;;15.75;10.50;;;;;;;0.07;69.00;95419.44;5093519;28;20559;-77
2022/12/09 05:19:23;;;;;;;17.00;10.95;;;;;;;0.05;68.09;95417.00;5093352;28;20048;-77
2022/12/09 05:21:51;;;;;;;15.30;10.82;;;;;;;0.05;68.98;95422.13;5093440;28;20517;-77
2022/12/09 05:24:19;;;;;;;14.57;10.27;;;;;;;0.08;69.51;95423.59;5093317;28;20564;-77
2022/12/09 05:26:47;;;;;;;16.25;9.85;;;;;;;0.11;69.20;95415.59;5093448;28;20048;-77
2022/12/09 05:29:14;;;;;;;15.23;10.38;;;;;;;0.07;68.84;95411.72;5093015;28;20048;-77
2022/12/09 05:31:51;;;;;;;16.50;10.73;;;;;;;0.08;70.02;95419.25;5093148;28;20052;-77
2022/12/09 05:34:19;;;;;;;15.77;11.02;;;;;;;0.09;69.84;95412.38;5092750;28;20062;-77
2022/12/09 05:36:47;;;;;;;17.23;10.93;;;;;;;0.11;70.35;95413.03;5082152;28;20140;-77
2022/12/09 05:39:15;;;;;;;15.73;10.65;;;;;;;0.13;70.55;95411.94;5073337;28;20573;-78
2022/12/09 05:41:43;;;;;;;16.42;11.40;;;;;;;0.17;70.50;95407.31;5093565;28;20471;-77
2022/12/09 05:44:11;;;;;;;20.75;10.43;;;;;;;0.21;70.34;95406.06;5093381;28;20460;-77
2022/12/09 05:46:39;;;;;;;13.25;9.63;;;;;;;0.19;68.86;95398.53;5093349;28;20055;-78
2022/12/09 05:49:08;;;;;;;14.23;10.07;;;;;;;0.15;68.71;95393.84;5108995;28;20075;-78
2022/12/09 05:51:36;;;;;;;19.20;10.73;;;;;;;0.12;68.83;95391.56;5116280;28;20083;-78
2022/12/09 05:54:06;;;;;;;14.50;9.43;;;;;;;0.12;69.89;95389.00;5096868;28;20517;-77
2022/12/09 05:56:34;;;;;;;14.57;10.13;;;;;;;0.12;70.04;95387.25;5094563;28;20052;-78
2022/12/09 05:59:01;;;;;;;15.80;10.35;;;;;;;0.14;69.48;95398.16;5092338;28;20040;-77
2022/12/09 06:01:29;;;;;;;14.48;9.30;;;;;;;0.14;70.06;95394.81;5093197;28;20051;-77
2022/12/09 06:03:57;;;;;;;14.68;9.85;;;;;;;0.15;70.39;95386.97;5092715;28;20076;-78
2022/12/09 06:06:28;;;;;;;14.35;9.50;;;;;;;0.18;70.32;95391.00;5093265;28;20052;-77
2022/12/09 06:08:59;;;;;;;15.98;9.57;;;;;;;0.14;68.86;95377.66;5092309;28;20134;-77
2022/12/09 06:11:28;;;;;;;15.95;10.10;;;;;;;0.21;70.38;95370.16;5092843;28;20055;-78
2022/12/09 06:13:56;;;;;;;15.38;9.45;;;;;;;0.30;70.28;95363.34;5092642;28;20082;-77
2022/12/09 06:16:25;;;;;;;16.52;10.45;;;;;;;0.34;69.75;95359.53;5092715;28;20044;-78
2022/12/09 06:18:53;;;;;;;16.20;10.00;;;;;;;0.34;69.31;95368.03;5092112;28;20086;-77
2022/12/09 06:21:22;;;;;;;16.42;9.20;;;;;;;0.31;70.08;95370.09;5093030;28;20054;-77
2022/12/09 06:23:52;;;;;;;16.83;9.48;;;;;;;0.34;69.91;95368.03;5082726;28;20049;-78
2022/12/09 06:26:22;;;;;;;15.80;10.75;;;;;;;0.37;69.88;95360.06;5072537;28;20044;-77
2022/12/09 06:28:51;;;;;;;16.55;10.27;;;;;;;0.38;70.08;95366.00;5085522;28;20043;-77
2022/12/09 06:31:19;;;;;;;16.92;10.60;;;;;;;0.38;70.13;95350.59;5091957;28;20402;-77
2022/12/09 06:33:48;;;;;;;17.77;11.10;;;;;;;0.35;68.92;95356.00;5092093;28;20051;-77
2022/12/09 06:36:26;;;;;;;18.55;11.13;;;;;;;0.30;68.38;95351.31;5092416;28;20464;-77
2022/12/09 06:38:57;;;;;;;18.45;11.73;;;;;;;0.28;68.97;95350.66;5089419;28;20060;-78
2022/12/09 06:41:32;;;;;;;18.08;12.60;;;;;;;0.30;68.87;95359.03;5082185;28;20173;-77
2022/12/09 06:44:00;;;;;;;21.35;13.10;;;;;;;0.26;68.75;95349.22;5092329;28;20106;-77
2022/12/09 06:46:28;;;;;;;20.27;13.70;;;;;;;0.23;69.01;95357.22;5075531;28;20472;-78
2022/12/09 06:48:56;;;;;;;16.73;11.18;;;;;;;0.25;69.01;95353.53;5071802;28;20513;-77
2022/12/09 06:51:24;;;;;;;19.25;12.75;;;;;;;0.27;68.58;95359.31;5072135;28;20056;-78
2022/12/09 06:53:53;;;;;;;20.42;12.88;;;;;;;0.29;68.81;95354.84;5072209;28;20058;-78
2022/12/09 06:56:23;;;;;;;18.60;12.65;;;;;;;0.34;69.67;95360.34;5072122;28;20490;-77
2022/12/09 06:58:51;;;;;;;21.98;13.05;;;;;;;0.39;70.06;95362.44;5080543;28;20048;-77
2022/12/09 07:01:21;;;;;;;20.20;13.18;;;;;;;0.44;70.29;95374.81;5092181;28;20044;-77
2022/12/09 07:03:51;;;;;;;22.42;13.52;;;;;;;0.46;69.98;95368.63;5088981;28;20040;-77
2022/12/09 07:06:25;;;;;;;18.67;12.25;;;;;;;0.48;69.23;95361.59;5089230;28;20456;-80
2022/12/09 07:08:54;;;;;;;25.90;13.77;;;;;;;0.45;68.42;95351.59;5091199;28;20067;-78
2022/12/09 07:11:23;;;;;;;22.67;14.10;;;;;;;0.40;67.59;95349.47;5081350;28;20060;-77
2022/12/09 07:13:52;;;;;;;23.30;12.70;;;;;;;0.38;68.20;95353.97;5085224;28;20068;-77
2022/12/09 07:16:20;;;;;;;22.95;13.93;;;;;;;0.39;68.69;95362.44;5091309;28;20054;-77
2022/12/09 07:18:48;;;;;;;20.85;13.02;;;;;;;0.42;69.03;95364.75;5091655;28;20052;-77
2022/12/09 07:21:19;;;;;;;18.70;12.82;;;;;;;0.46;68.99;95360.91;5090580;28;20056;-78
2022/12/09 07:23:48;;;;;;;19.20;12.30;;;;;;;0.51;69.58;95360.47;5091653;28;20044;-77
2022/12/09 07:26:16;;;;;;;19.80;12.05;;;;;;;0.52;69.72;95351.81;5091469;28;20052;-77
2022/12/09 07:28:48;;;;;;;24.08;13.27;;;;;;;0.55;69.47;95354.09;5090513;28;20078;-77
2022/12/09 07:31:18;;;;;;;19.15;12.20;;;;;;;0.58;69.21;95359.72;5096112;28;20055;-77
2022/12/09 07:33:47;;;;;;;19.70;13.07;;;;;;;0.59;68.30;95355.38;5093817;28;20114;-77
2022/12/09 07:36:15;;;;;;;18.88;11.95;;;;;;;0.56;67.75;95348.78;5086403;28;20448;-77
2022/12/09 07:38:48;;;;;;;18.35;11.30;;;;;;;0.53;67.41;95356.00;5095293;28;20101;-78
2022/12/09 07:41:17;;;;;;;15.07;10.57;;;;;;;0.53;67.45;95348.31;5095517;28;20097;-77
2022/12/09 07:43:48;;;;;;;22.35;11.35;;;;;;;0.53;67.52;95353.44;5095393;28;20493;-77
2022/12/09 07:46:18;;;;;;;19.35;11.75;;;;;;;0.49;67.30;95347.78;5095530;28;20052;-78
2022/12/09 07:48:47;;;;;;;16.92;12.18;;;;;;;0.51;67.93;95348.44;5094111;28;20048;-77
2022/12/09 07:51:16;;;;;;;23.05;12.98;;;;;;;0.54;67.53;95345.56;5094983;28;20056;-78
2022/12/09 07:53:44;;;;;;;16.73;11.63;;;;;;;0.58;68.17;95353.78;5094764;28;20395;-77
2022/12/09 07:56:14;;;;;;;18.73;13.43;;;;;;;0.64;68.80;95342.91;5094465;28;20561;-77
2022/12/09 07:58:43;;;;;;;22.85;12.48;;;;;;;0.69;68.56;95340.69;5083773;28;20048;-77
2022/12/09 08:01:15;;;;;;;22.73;12.95;;;;;;;0.72;67.90;95335.28;5093734;28;20501;-77
2022/12/09 08:03:44;;;;;;;22.83;14.43;;;;;;;0.74;67.97;95338.47;5094828;28;20044;-77
2022/12/09 08:06:13;;;;;;;19.35;13.50;;;;;;;0.76;67.71;95343.44;5094577;28;20044;-77
2022/12/09 08:08:41;;;;;;;20.70;13.60;;;;;;;0.79;67.67;95332.91;5093437;28;20093;-78
2022/12/09 08:11:11;;;;;;;24.33;13.60;;;;;;;0.81;67.81;95331.78;5094707;28;20052;-77
2022/12/09 08:13:40;;;;;;;23.25;13.65;;;;;;;0.83;67.85;95334.19;5095149;28;20146;-77
2022/12/09 08:16:12;;;;;;;21.65;13.27;;;;;;;0.85;67.91;95328.91;5094635;28;20584;-77
2022/12/09 08:18:41;;;;;;;22.53;13.83;;;;;;;0.89;68.55;95327.63;5094177;28;20101;-77
2022/12/09 08:21:12;;;;;;;24.00;15.10;;;;;;;0.96;69.25;95328.63;5094421;28;20140;-77
2022/12/09 08:23:40;;;;;;;20.38;14.30;;;;;;;1.04;69.54;95333.81;5091181;28;20105;-77
2022/12/09 08:26:09;;;;;;;21.77;15.00;;;;;;;1.11;69.82;95326.28;5094784;28;20135;-77
2022/12/09 08:28:37;;;;;;;27.30;17.73;;;;;;;1.13;68.95;95330.31;5093895;28;20476;-77
2022/12/09 08:31:09;;;;;;;35.40;22.10;;;;;;;1.13;68.66;95325.19;5094701;28;20539;-78
2022/12/09 08:33:39;;;;;;;34.53;21.90;;;;;;;1.17;69.02;95323.91;5095063;28;20075;-77
2022/12/09 08:36:11;;;;;;;36.88;23.55;;;;;;;1.22;70.19;95320.88;5097445;28;20109;-77
2022/12/09 08:38:39;;;;;;;33.20;20.00;;;;;;;1.28;69.73;95322.81;5094871;28;20052;-77
2022/12/09 08:41:09;;;;;;;26.75;17.13;;;;;;;1.33;69.69;95314.66;5093998;28;20123;-78
2022/12/09 08:43:37;;;;;;;22.88;14.13;;;;;;;1.37;69.51;95313.38;5094382;28;20140;-77
2022/12/09 08:46:05;;;;;;;25.92;17.73;;;;;;;1.37;69.19;95309.03;5092646;28;20044;-77
2022/12/09 08:48:35;;;;;;;24.65;16.00;;;;;;;1.42;70.27;95313.72;5084620;28;20051;-78
2022/12/09 08:51:06;;;;;;;23.60;15.13;;;;;;;1.46;70.46;95311.63;5094134;28;20517;-77
2022/12/09 08:53:33;;;;;;;24.55;14.85;;;;;;;1.53;70.31;95310.03;5093981;28;20105;-78
2022/12/09 08:56:09;;;;;;;24.17;16.65;;;;;;;1.56;70.83;95310.53;5093888;28;20040;-78
2022/12/09 08:58:37;;;;;;;29.50;17.70;;;;;;;1.61;70.69;95308.28;5094485;28;20052;-78
2022/12/09 09:01:05;;;;;;;27.33;16.52;;;;;;;1.67;70.40;95306.88;5094191;28;20068;-79
2022/12/09 09:03:33;;;;;;;24.00;16.08;;;;;;;1.69;70.62;95311.88;5094199;28;20078;-77
2022/12/09 09:06:03;;;;;;;27.20;16.45;;;;;;;1.72;70.42;95309.75;5093653;28;20036;-77
2022/12/09 09:08:39;;;;;;;24.02;14.98;;;;;;;1.78;71.12;95310.91;5093878;28;20429;-78
2022/12/09 09:11:10;;;;;;;27.45;16.92;;;;;;;1.82;70.61;95310.44;5093543;28;20047;-78
2022/12/09 09:13:40;;;;;;;26.40;15.95;;;;;;;1.84;70.79;95305.94;5093730;28;20094;-77
2022/12/09 09:16:10;;;;;;;23.58;14.93;;;;;;;1.89;70.65;95294.38;5093813;28;20036;-77
2022/12/09 09:18:38;;;;;;;23.92;15.63;;;;;;;1.91;70.12;95305.28;5093572;28;20054;-77
2022/12/09 09:21:07;;;;;;;24.33;15.75;;;;;;;1.91;70.03;95298.38;5093057;28;20074;-77
2022/12/09 09:23:35;;;;;;;25.60;16.08;;;;;;;1.95;70.57;95298.88;5093421;28;20048;-77
2022/12/09 09:26:09;;;;;;;33.80;16.42;;;;;;;1.98;70.01;95294.19;5093622;28;20094;-78
2022/12/09 09:28:36;;;;;;;28.63;15.75;;;;;;;2.01;69.99;95291.31;5093280;28;20083;-78
2022/12/09 09:31:06;;;;;;;30.58;16.70;;;;;;;2.02;69.47;95300.63;5092628;28;20565;-77
2022/12/09 09:33:34;;;;;;;27.60;15.60;;;;;;;2.03;69.63;95302.25;5072821;28;20127;-78
2022/12/09 09:36:05;;;;;;;26.10;14.82;;;;;;;2.02;69.65;95305.78;5087166;28;20044;-77
2022/12/09 09:38:37;;;;;;;28.83;15.38;;;;;;;2.00;69.49;95297.41;5092777;28;20048;-77
2022/12/09 09:41:20;;;;;;;26.20;13.98;;;;;;;1.99;69.34;95300.97;5092670;28;20048;-78
2022/12/09 09:43:48;;;;;;;28.92;16.23;;;;;;;1.96;69.14;95306.41;5072763;28;20049;-78
2022/12/09 09:46:28;;;;;;;28.35;15.68;;;;;;;1.93;69.37;95298.22;5084212;28;20044;-77
2022/12/09 09:48:58;;;;;;;29.20;15.60;;;;;;;1.92;69.57;95294.84;5072535;28;20106;-78
2022/12/09 09:51:27;;;;;;;28.85;15.85;;;;;;;1.92;69.52;95294.03;5085193;28;20181;-77
2022/12/09 09:53:55;;;;;;;29.20;16.92;;;;;;;1.93;69.46;95285.38;5092433;28;20101;-77
2022/12/09 09:56:34;;;;;;;28.27;16.15;;;;;;;1.93;69.58;95288.75;5092136;28;20089;-78
2022/12/09 09:59:17;;;;;;;30.58;15.05;;;;;;;1.96;69.31;95290.19;5092448;28;20044;-78
2022/12/09 10:01:53;;;;;;;25.27;14.00;;;;;;;1.97;69.66;95291.81;5084304;28;20501;-78
2022/12/09 10:04:28;;;;;;;25.73;13.82;;;;;;;1.97;69.16;95287.47;5092012;28;20040;-77
2022/12/09 10:07:06;;;;;;;26.58;14.82;;;;;;;2.01;70.71;95287.91;5092419;28;20048;-79
2022/12/09 10:09:41;;;;;;;25.95;14.77;;;;;;;2.08;70.34;95294.06;5092050;28;20044;-79
2022/12/09 10:12:19;;;;;;;37.40;18.85;;;;;;;2.11;70.17;95287.78;5094060;28;20058;-80
2022/12/09 10:14:56;;;;;;;35.70;18.45;;;;;;;2.13;70.05;95291.78;5092713;28;20048;-79
2022/12/09 10:17:28;;;;;;;35.67;19.10;;;;;;;2.16;70.90;95290.66;5089642;28;20048;-78
2022/12/09 10:20:01;;;;;;;36.45;19.00;;;;;;;2.19;70.58;95285.22;5092419;28;20060;-79
2022/12/09 10:22:37;;;;;;;34.25;18.88;;;;;;;2.20;70.48;95273.94;5080677;28;20063;-79
2022/12/09 10:25:16;;;;;;;36.25;19.05;;;;;;;2.24;70.35;95267.50;5092504;28;20513;-77
2022/12/09 10:27:52;;;;;;;28.15;16.20;;;;;;;2.27;70.11;95264.59;5083073;28;20048;-78
2022/12/09 10:30:20;;;;;;;31.33;16.40;;;;;;;2.30;69.88;95261.72;5092542;28;20052;-78
2022/12/09 10:32:49;;;;;;;32.33;17.40;;;;;;;2.32;69.79;95253.81;5085068;28;20040;-78
2022/12/09 10:35:19;;;;;;;27.83;16.08;;;;;;;2.34;69.68;95255.28;5089468;28;20059;-78
2022/12/09 10:37:48;;;;;;;30.52;18.33;;;;;;;2.37;69.63;95249.78;5090615;28;20042;-80
2022/12/09 10:40:22;;;;;;;32.60;18.30;;;;;;;2.38;69.32;95245.44;5092607;28;20044;-80
2022/12/09 10:45:43;;;;;;;29.13;16.63;;;;;;;2.31;69.20;95244.50;5066546;28;20505;-80
2022/12/09 10:48:33;;;;;;;28.58;15.30;;;;;;;2.31;69.17;95237.56;5091787;28;20079;-79
2022/12/09 10:51:05;;;;;;;28.90;15.38;;;;;;;2.35;69.35;95241.44;5089610;28;20560;-79
2022/12/09 10:53:34;;;;;;;28.00;15.18;;;;;;;2.39;69.21;95240.13;5088692;28;20055;-78
2022/12/09 10:56:03;;;;;;;26.67;15.88;;;;;;;2.44;69.39;95232.72;5092270;28;20043;-79
2022/12/09 10:58:32;;;;;;;30.58;16.67;;;;;;;2.48;68.88;95228.84;5092112;28;20614;-80
2022/12/09 11:01:03;;;;;;;29.05;15.70;;;;;;;2.50;68.78;95220.19;5088012;28;20044;-78
2022/12/09 11:03:34;;;;;;;31.63;16.48;;;;;;;2.48;69.02;95218.56;5092603;28;20044;-78
2022/12/09 11:06:14;;;;;;;27.25;15.80;;;;;;;2.51;69.14;95216.63;5096096;28;20047;-78
2022/12/09 11:08:50;;;;;;;33.97;18.88;;;;;;;2.52;68.73;95224.19;5094504;28;20071;-78
2022/12/09 11:11:19;;;;;;;32.38;18.75;;;;;;;2.49;69.54;95227.06;5095480;28;20048;-78
2022/12/09 11:13:48;;;;;;;35.83;19.23;;;;;;;2.48;69.22;95223.69;5094564;28;20109;-78
2022/12/09 11:16:16;;;;;;;40.10;20.20;;;;;;;2.47;69.13;95227.25;5114070;28;20452;-78
2022/12/09 11:18:46;;;;;;;35.50;19.33;;;;;;;2.47;69.43;95234.97;5119868;28;20055;-78
2022/12/09 11:21:31;;;;;;;38.67;20.58;;;;;;;2.46;69.26;95233.34;5096910;28;20044;-78
2022/12/09 11:24:00;;;;;;;40.47;23.42;;;;;;;2.47;69.32;95226.44;5095367;28;20268;-78
2022/12/09 11:26:37;;;;;;;29.73;16.42;;;;;;;2.48;69.00;95212.63;5090073;28;20101;-78
2022/12/09 11:29:14;;;;;;;30.27;17.10;;;;;;;2.50;69.22;95207.31;5095473;28;20063;-78
2022/12/09 11:31:43;;;;;;;27.42;16.60;;;;;;;2.54;69.11;95208.59;5095399;28;20445;-78
2022/12/09 11:34:18;;;;;;;28.65;15.95;;;;;;;2.56;69.12;95202.28;5095603;28;20076;-78
2022/12/09 11:36:49;;;;;;;27.75;16.25;;;;;;;2.60;68.85;95205.31;5095382;28;20123;-78
2022/12/09 11:39:25;;;;;;;30.85;18.40;;;;;;;2.58;68.99;95202.94;5095513;28;20044;-78
2022/12/09 11:42:13;;;;;;;36.75;19.95;;;;;;;2.59;69.43;95221.75;5095335;28;20428;-78
2022/12/09 11:44:55;;;;;;;39.60;20.50;;;;;;;2.61;69.13;95223.19;5095547;28;20052;-78
2022/12/09 11:47:30;;;;;;;39.63;23.23;;;;;;;2.63;69.26;95207.59;5095229;28;20413;-78